sensor_id;sensor_type;location;lat;lon;timestamp;P1;durP1;ratioP1;P2;durP2;ratioP2
12861;SDS011;6499;66.348;14.134;2023-07-20T00:00:10;1.40;;;0.80;;
12861;SDS011;6499;66.348;14.134;2023-07-20T00:02:39;1.77;;;0.70;;
12861;SDS011;6499;66.348;14.134;2023-07-20T00:05:05;1.20;;;0.70;;
12861;SDS011;6499;66.348;14.134;2023-07-20T00:07:32;1.00;;;0.70;;
12861;SDS011;6499;66.348;14.134;2023-07-20T00:10:00;1.30;;;0.80;;
12861;SDS011;6499;66.348;14.134;2023-07-20T00:12:27;1.63;;;0.63;;
12861;SDS011;6499;66.348;14.134;2023-07-20T00:14:53;2.73;;;0.80;;
12861;SDS011;6499;66.348;14.134;2023-07-20T00:17:20;1.03;;;0.60;;
12861;SDS011;6499;66.348;14.134;2023-07-20T00:19:46;1.90;;;0.80;;
12861;SDS011;6499;66.348;14.134;2023-07-20T00:22:13;1.13;;;0.80;;
12861;SDS011;6499;66.348;14.134;2023-07-20T00:24:39;1.13;;;0.70;;
12861;SDS011;6499;66.348;14.134;2023-07-20T00:27:07;0.60;;;0.60;;
12861;SDS011;6499;66.348;14.134;2023-07-20T00:29:34;1.20;;;0.80;;
12861;SDS011;6499;66.348;14.134;2023-07-20T00:32:00;1.40;;;0.60;;
12861;SDS011;6499;66.348;14.134;2023-07-20T00:34:30;1.40;;;0.70;;
12861;SDS011;6499;66.348;14.134;2023-07-20T00:36:56;1.40;;;0.90;;
12861;SDS011;6499;66.348;14.134;2023-07-20T00:39:23;1.70;;;0.80;;
12861;SDS011;6499;66.348;14.134;2023-07-20T00:41:49;6.13;;;1.10;;
12861;SDS011;6499;66.348;14.134;2023-07-20T00:44:17;2.00;;;0.83;;
12861;SDS011;6499;66.348;14.134;2023-07-20T00:46:43;1.60;;;0.70;;
12861;SDS011;6499;66.348;14.134;2023-07-20T00:49:10;0.90;;;0.80;;
12861;SDS011;6499;66.348;14.134;2023-07-20T00:51:36;2.27;;;0.73;;
12861;SDS011;6499;66.348;14.134;2023-07-20T00:54:03;0.80;;;0.70;;
12861;SDS011;6499;66.348;14.134;2023-07-20T00:56:29;1.57;;;0.70;;
12861;SDS011;6499;66.348;14.134;2023-07-20T00:58:56;1.40;;;0.93;;
12861;SDS011;6499;66.348;14.134;2023-07-20T01:01:24;1.00;;;0.90;;
12861;SDS011;6499;66.348;14.134;2023-07-20T01:03:50;2.03;;;0.90;;
12861;SDS011;6499;66.348;14.134;2023-07-20T01:06:20;2.10;;;0.87;;
12861;SDS011;6499;66.348;14.134;2023-07-20T01:08:53;2.93;;;0.90;;
12861;SDS011;6499;66.348;14.134;2023-07-20T01:11:23;1.37;;;0.90;;
12861;SDS011;6499;66.348;14.134;2023-07-20T01:13:51;0.97;;;0.90;;
12861;SDS011;6499;66.348;14.134;2023-07-20T01:16:17;1.67;;;0.80;;
12861;SDS011;6499;66.348;14.134;2023-07-20T01:18:45;2.03;;;0.90;;
12861;SDS011;6499;66.348;14.134;2023-07-20T01:21:13;0.80;;;0.80;;
12861;SDS011;6499;66.348;14.134;2023-07-20T01:24:00;2.07;;;1.03;;
12861;SDS011;6499;66.348;14.134;2023-07-20T01:26:38;1.97;;;0.67;;
12861;SDS011;6499;66.348;14.134;2023-07-20T01:29:11;1.17;;;0.80;;
12861;SDS011;6499;66.348;14.134;2023-07-20T01:31:45;1.00;;;0.80;;
12861;SDS011;6499;66.348;14.134;2023-07-20T01:34:13;1.60;;;0.73;;
12861;SDS011;6499;66.348;14.134;2023-07-20T01:36:43;1.10;;;0.83;;
12861;SDS011;6499;66.348;14.134;2023-07-20T01:39:10;1.10;;;0.90;;
12861;SDS011;6499;66.348;14.134;2023-07-20T01:41:37;1.80;;;0.90;;
12861;SDS011;6499;66.348;14.134;2023-07-20T01:44:04;1.23;;;1.00;;
12861;SDS011;6499;66.348;14.134;2023-07-20T01:46:30;1.80;;;0.77;;
12861;SDS011;6499;66.348;14.134;2023-07-20T01:48:58;1.50;;;0.80;;
12861;SDS011;6499;66.348;14.134;2023-07-20T01:51:24;2.47;;;0.80;;
12861;SDS011;6499;66.348;14.134;2023-07-20T01:53:51;1.40;;;0.90;;
12861;SDS011;6499;66.348;14.134;2023-07-20T01:56:18;1.00;;;0.90;;
12861;SDS011;6499;66.348;14.134;2023-07-20T01:58:44;0.97;;;0.97;;
12861;SDS011;6499;66.348;14.134;2023-07-20T02:01:11;1.37;;;0.90;;
12861;SDS011;6499;66.348;14.134;2023-07-20T02:03:37;1.20;;;0.80;;
12861;SDS011;6499;66.348;14.134;2023-07-20T02:06:05;1.33;;;0.80;;
12861;SDS011;6499;66.348;14.134;2023-07-20T02:08:32;1.33;;;0.90;;
12861;SDS011;6499;66.348;14.134;2023-07-20T02:10:58;1.50;;;0.80;;
12861;SDS011;6499;66.348;14.134;2023-07-20T02:13:25;0.90;;;0.80;;
12861;SDS011;6499;66.348;14.134;2023-07-20T02:15:51;1.43;;;1.07;;
12861;SDS011;6499;66.348;14.134;2023-07-20T02:18:18;1.93;;;0.90;;
12861;SDS011;6499;66.348;14.134;2023-07-20T02:20:44;1.40;;;0.93;;
12861;SDS011;6499;66.348;14.134;2023-07-20T02:23:12;1.57;;;0.93;;
12861;SDS011;6499;66.348;14.134;2023-07-20T02:25:39;2.00;;;0.87;;
12861;SDS011;6499;66.348;14.134;2023-07-20T02:28:06;1.03;;;0.80;;
12861;SDS011;6499;66.348;14.134;2023-07-20T02:30:33;0.90;;;0.87;;
12861;SDS011;6499;66.348;14.134;2023-07-20T02:33:00;0.83;;;0.80;;
12861;SDS011;6499;66.348;14.134;2023-07-20T02:35:26;1.77;;;0.97;;
12861;SDS011;6499;66.348;14.134;2023-07-20T02:37:53;5.27;;;1.10;;
12861;SDS011;6499;66.348;14.134;2023-07-20T02:40:21;0.87;;;0.80;;
12861;SDS011;6499;66.348;14.134;2023-07-20T02:42:48;1.07;;;0.80;;
12861;SDS011;6499;66.348;14.134;2023-07-20T02:45:14;2.07;;;1.00;;
12861;SDS011;6499;66.348;14.134;2023-07-20T02:47:41;0.70;;;0.60;;
12861;SDS011;6499;66.348;14.134;2023-07-20T02:50:08;1.57;;;0.90;;
12861;SDS011;6499;66.348;14.134;2023-07-20T02:52:34;1.07;;;0.80;;
12861;SDS011;6499;66.348;14.134;2023-07-20T02:55:01;1.93;;;0.80;;
12861;SDS011;6499;66.348;14.134;2023-07-20T02:57:29;0.90;;;0.90;;
12861;SDS011;6499;66.348;14.134;2023-07-20T02:59:55;0.90;;;0.80;;
12861;SDS011;6499;66.348;14.134;2023-07-20T03:02:24;1.27;;;0.80;;
12861;SDS011;6499;66.348;14.134;2023-07-20T03:04:51;2.40;;;1.00;;
12861;SDS011;6499;66.348;14.134;2023-07-20T03:07:18;2.00;;;0.90;;
12861;SDS011;6499;66.348;14.134;2023-07-20T03:09:45;0.80;;;0.80;;
12861;SDS011;6499;66.348;14.134;2023-07-20T03:12:11;2.47;;;0.87;;
12861;SDS011;6499;66.348;14.134;2023-07-20T03:14:39;0.90;;;0.90;;
12861;SDS011;6499;66.348;14.134;2023-07-20T03:17:06;1.30;;;0.90;;
12861;SDS011;6499;66.348;14.134;2023-07-20T03:19:33;2.60;;;1.23;;
12861;SDS011;6499;66.348;14.134;2023-07-20T03:21:59;1.20;;;0.67;;
12861;SDS011;6499;66.348;14.134;2023-07-20T03:24:26;2.10;;;0.90;;
12861;SDS011;6499;66.348;14.134;2023-07-20T03:26:52;1.40;;;1.20;;
12861;SDS011;6499;66.348;14.134;2023-07-20T03:29:19;1.30;;;1.10;;
12861;SDS011;6499;66.348;14.134;2023-07-20T03:31:47;2.53;;;1.10;;
12861;SDS011;6499;66.348;14.134;2023-07-20T03:34:14;0.80;;;0.80;;
12861;SDS011;6499;66.348;14.134;2023-07-20T03:36:40;3.33;;;1.00;;
12861;SDS011;6499;66.348;14.134;2023-07-20T03:39:07;1.73;;;0.87;;
12861;SDS011;6499;66.348;14.134;2023-07-20T03:41:33;1.20;;;1.03;;
12861;SDS011;6499;66.348;14.134;2023-07-20T03:44:00;0.70;;;0.70;;
12861;SDS011;6499;66.348;14.134;2023-07-20T03:46:26;2.27;;;1.03;;
12861;SDS011;6499;66.348;14.134;2023-07-20T03:48:54;3.00;;;1.00;;
12861;SDS011;6499;66.348;14.134;2023-07-20T03:51:21;1.47;;;1.00;;
12861;SDS011;6499;66.348;14.134;2023-07-20T03:53:47;1.73;;;1.30;;
12861;SDS011;6499;66.348;14.134;2023-07-20T03:56:14;2.33;;;1.53;;
12861;SDS011;6499;66.348;14.134;2023-07-20T03:58:40;1.90;;;1.60;;
12861;SDS011;6499;66.348;14.134;2023-07-20T04:01:07;4.13;;;1.70;;
12861;SDS011;6499;66.348;14.134;2023-07-20T04:03:37;2.37;;;1.30;;
12861;SDS011;6499;66.348;14.134;2023-07-20T04:06:08;2.53;;;1.80;;
12861;SDS011;6499;66.348;14.134;2023-07-20T04:08:35;1.50;;;1.40;;
12861;SDS011;6499;66.348;14.134;2023-07-20T04:11:01;2.27;;;1.17;;
12861;SDS011;6499;66.348;14.134;2023-07-20T04:13:28;2.30;;;1.60;;
12861;SDS011;6499;66.348;14.134;2023-07-20T04:15:58;1.53;;;1.23;;
12861;SDS011;6499;66.348;14.134;2023-07-20T04:18:25;1.80;;;1.23;;
12861;SDS011;6499;66.348;14.134;2023-07-20T04:20:51;2.93;;;1.40;;
12861;SDS011;6499;66.348;14.134;2023-07-20T04:23:19;1.40;;;1.10;;
12861;SDS011;6499;66.348;14.134;2023-07-20T04:25:46;2.47;;;1.17;;
12861;SDS011;6499;66.348;14.134;2023-07-20T04:28:12;3.17;;;1.20;;
12861;SDS011;6499;66.348;14.134;2023-07-20T04:30:39;1.47;;;0.87;;
12861;SDS011;6499;66.348;14.134;2023-07-20T04:33:05;1.40;;;1.30;;
12861;SDS011;6499;66.348;14.134;2023-07-20T04:35:44;4.50;;;1.40;;
12861;SDS011;6499;66.348;14.134;2023-07-20T04:38:11;2.43;;;1.20;;
12861;SDS011;6499;66.348;14.134;2023-07-20T04:40:39;2.63;;;1.20;;
12861;SDS011;6499;66.348;14.134;2023-07-20T04:43:06;1.10;;;1.00;;
12861;SDS011;6499;66.348;14.134;2023-07-20T04:45:32;3.47;;;1.40;;
12861;SDS011;6499;66.348;14.134;2023-07-20T04:47:59;2.90;;;1.40;;
12861;SDS011;6499;66.348;14.134;2023-07-20T04:50:25;2.50;;;1.30;;
12861;SDS011;6499;66.348;14.134;2023-07-20T04:52:52;2.10;;;1.10;;
12861;SDS011;6499;66.348;14.134;2023-07-20T04:55:19;3.37;;;1.53;;
12861;SDS011;6499;66.348;14.134;2023-07-20T04:57:46;1.50;;;1.20;;
12861;SDS011;6499;66.348;14.134;2023-07-20T05:00:13;1.43;;;1.33;;
12861;SDS011;6499;66.348;14.134;2023-07-20T05:02:40;2.67;;;1.20;;
12861;SDS011;6499;66.348;14.134;2023-07-20T05:05:07;2.40;;;1.37;;
12861;SDS011;6499;66.348;14.134;2023-07-20T05:07:37;2.73;;;1.37;;
12861;SDS011;6499;66.348;14.134;2023-07-20T05:10:04;1.27;;;1.13;;
12861;SDS011;6499;66.348;14.134;2023-07-20T05:12:31;1.47;;;1.20;;
12861;SDS011;6499;66.348;14.134;2023-07-20T05:14:59;3.47;;;1.40;;
12861;SDS011;6499;66.348;14.134;2023-07-20T05:17:26;2.67;;;1.60;;
12861;SDS011;6499;66.348;14.134;2023-07-20T05:19:52;2.00;;;1.30;;
12861;SDS011;6499;66.348;14.134;2023-07-20T05:22:19;1.63;;;1.23;;
12861;SDS011;6499;66.348;14.134;2023-07-20T05:24:45;1.57;;;1.40;;
12861;SDS011;6499;66.348;14.134;2023-07-20T05:27:12;1.50;;;1.27;;
12861;SDS011;6499;66.348;14.134;2023-07-20T05:29:43;4.20;;;1.40;;
12861;SDS011;6499;66.348;14.134;2023-07-20T05:32:10;2.97;;;1.27;;
12861;SDS011;6499;66.348;14.134;2023-07-20T05:34:37;1.70;;;1.60;;
12861;SDS011;6499;66.348;14.134;2023-07-20T05:37:04;2.00;;;1.30;;
12861;SDS011;6499;66.348;14.134;2023-07-20T05:39:31;4.00;;;1.33;;
12861;SDS011;6499;66.348;14.134;2023-07-20T05:41:58;1.80;;;1.40;;
12861;SDS011;6499;66.348;14.134;2023-07-20T05:44:24;4.30;;;1.50;;
12861;SDS011;6499;66.348;14.134;2023-07-20T05:46:51;1.80;;;1.37;;
12861;SDS011;6499;66.348;14.134;2023-07-20T05:49:19;2.47;;;1.47;;
12861;SDS011;6499;66.348;14.134;2023-07-20T05:51:45;2.53;;;1.60;;
12861;SDS011;6499;66.348;14.134;2023-07-20T05:54:12;3.33;;;1.60;;
12861;SDS011;6499;66.348;14.134;2023-07-20T05:56:39;3.33;;;1.60;;
12861;SDS011;6499;66.348;14.134;2023-07-20T05:59:05;4.93;;;1.73;;
12861;SDS011;6499;66.348;14.134;2023-07-20T06:01:32;1.80;;;1.30;;
12861;SDS011;6499;66.348;14.134;2023-07-20T06:03:58;2.53;;;1.50;;
12861;SDS011;6499;66.348;14.134;2023-07-20T06:06:26;1.97;;;1.60;;
12861;SDS011;6499;66.348;14.134;2023-07-20T06:08:53;2.50;;;1.27;;
12861;SDS011;6499;66.348;14.134;2023-07-20T06:11:19;3.00;;;1.40;;
12861;SDS011;6499;66.348;14.134;2023-07-20T06:13:46;1.30;;;1.20;;
12861;SDS011;6499;66.348;14.134;2023-07-20T06:16:12;2.40;;;1.33;;
12861;SDS011;6499;66.348;14.134;2023-07-20T06:18:39;2.30;;;1.23;;
12861;SDS011;6499;66.348;14.134;2023-07-20T06:21:05;1.47;;;1.33;;
12861;SDS011;6499;66.348;14.134;2023-07-20T06:23:33;2.40;;;1.17;;
12861;SDS011;6499;66.348;14.134;2023-07-20T06:26:00;1.87;;;1.53;;
12861;SDS011;6499;66.348;14.134;2023-07-20T06:28:26;1.97;;;1.50;;
12861;SDS011;6499;66.348;14.134;2023-07-20T06:30:54;1.83;;;1.40;;
12861;SDS011;6499;66.348;14.134;2023-07-20T06:33:24;4.13;;;1.70;;
12861;SDS011;6499;66.348;14.134;2023-07-20T06:35:51;2.47;;;1.23;;
12861;SDS011;6499;66.348;14.134;2023-07-20T06:38:18;2.47;;;1.30;;
12861;SDS011;6499;66.348;14.134;2023-07-20T06:40:47;2.23;;;1.40;;
12861;SDS011;6499;66.348;14.134;2023-07-20T06:43:13;1.90;;;1.40;;
12861;SDS011;6499;66.348;14.134;2023-07-20T06:45:40;2.00;;;1.80;;
12861;SDS011;6499;66.348;14.134;2023-07-20T06:48:07;2.97;;;1.57;;
12861;SDS011;6499;66.348;14.134;2023-07-20T06:50:33;2.43;;;1.80;;
12861;SDS011;6499;66.348;14.134;2023-07-20T06:53:00;3.20;;;1.80;;
12861;SDS011;6499;66.348;14.134;2023-07-20T06:55:28;3.10;;;1.80;;
12861;SDS011;6499;66.348;14.134;2023-07-20T06:57:56;5.13;;;2.37;;
12861;SDS011;6499;66.348;14.134;2023-07-20T07:00:23;2.70;;;1.70;;
12861;SDS011;6499;66.348;14.134;2023-07-20T07:02:49;2.53;;;1.70;;
12861;SDS011;6499;66.348;14.134;2023-07-20T07:05:15;3.13;;;1.50;;
12861;SDS011;6499;66.348;14.134;2023-07-20T07:07:43;2.70;;;1.80;;
12861;SDS011;6499;66.348;14.134;2023-07-20T07:10:10;3.67;;;1.83;;
12861;SDS011;6499;66.348;14.134;2023-07-20T07:12:36;2.50;;;1.70;;
12861;SDS011;6499;66.348;14.134;2023-07-20T07:15:05;8.13;;;4.43;;
12861;SDS011;6499;66.348;14.134;2023-07-20T07:17:32;5.80;;;4.50;;
12861;SDS011;6499;66.348;14.134;2023-07-20T07:20:00;7.47;;;3.80;;
12861;SDS011;6499;66.348;14.134;2023-07-20T07:22:26;3.77;;;2.00;;
12861;SDS011;6499;66.348;14.134;2023-07-20T07:24:54;3.47;;;1.80;;
12861;SDS011;6499;66.348;14.134;2023-07-20T07:27:21;6.70;;;2.70;;
12861;SDS011;6499;66.348;14.134;2023-07-20T07:29:47;4.73;;;2.13;;
12861;SDS011;6499;66.348;14.134;2023-07-20T07:32:16;4.30;;;2.20;;
12861;SDS011;6499;66.348;14.134;2023-07-20T07:34:43;4.63;;;2.37;;
12861;SDS011;6499;66.348;14.134;2023-07-20T07:37:11;3.17;;;2.20;;
12861;SDS011;6499;66.348;14.134;2023-07-20T07:39:38;5.53;;;2.20;;
12861;SDS011;6499;66.348;14.134;2023-07-20T07:42:05;5.30;;;1.90;;
12861;SDS011;6499;66.348;14.134;2023-07-20T07:44:31;4.80;;;1.90;;
12861;SDS011;6499;66.348;14.134;2023-07-20T07:46:58;3.33;;;2.00;;
12861;SDS011;6499;66.348;14.134;2023-07-20T07:49:26;3.27;;;2.10;;
12861;SDS011;6499;66.348;14.134;2023-07-20T07:51:53;3.67;;;2.10;;
12861;SDS011;6499;66.348;14.134;2023-07-20T07:54:19;2.97;;;1.83;;
12861;SDS011;6499;66.348;14.134;2023-07-20T07:56:46;3.97;;;2.13;;
12861;SDS011;6499;66.348;14.134;2023-07-20T07:59:12;3.57;;;2.10;;
12861;SDS011;6499;66.348;14.134;2023-07-20T08:01:39;3.97;;;2.20;;
12861;SDS011;6499;66.348;14.134;2023-07-20T08:04:05;5.10;;;1.80;;
12861;SDS011;6499;66.348;14.134;2023-07-20T08:06:33;4.43;;;1.50;;
12861;SDS011;6499;66.348;14.134;2023-07-20T08:09:00;3.57;;;1.60;;
12861;SDS011;6499;66.348;14.134;2023-07-20T08:11:27;2.30;;;1.60;;
12861;SDS011;6499;66.348;14.134;2023-07-20T08:13:56;3.87;;;1.50;;
12861;SDS011;6499;66.348;14.134;2023-07-20T08:16:22;3.53;;;1.60;;
12861;SDS011;6499;66.348;14.134;2023-07-20T08:18:49;3.47;;;2.00;;
12861;SDS011;6499;66.348;14.134;2023-07-20T08:21:15;2.23;;;1.40;;
12861;SDS011;6499;66.348;14.134;2023-07-20T08:23:43;3.20;;;1.50;;
12861;SDS011;6499;66.348;14.134;2023-07-20T08:26:12;1.53;;;1.33;;
12861;SDS011;6499;66.348;14.134;2023-07-20T08:28:38;3.43;;;1.30;;
12861;SDS011;6499;66.348;14.134;2023-07-20T08:31:05;3.40;;;1.30;;
12861;SDS011;6499;66.348;14.134;2023-07-20T08:33:32;3.70;;;1.37;;
12861;SDS011;6499;66.348;14.134;2023-07-20T08:36:00;3.20;;;1.50;;
12861;SDS011;6499;66.348;14.134;2023-07-20T08:38:26;3.40;;;1.60;;
12861;SDS011;6499;66.348;14.134;2023-07-20T08:40:54;2.90;;;1.50;;
12861;SDS011;6499;66.348;14.134;2023-07-20T08:43:21;4.53;;;1.50;;
12861;SDS011;6499;66.348;14.134;2023-07-20T08:45:48;3.20;;;1.33;;
12861;SDS011;6499;66.348;14.134;2023-07-20T08:48:16;2.73;;;1.40;;
12861;SDS011;6499;66.348;14.134;2023-07-20T08:50:44;3.10;;;1.57;;
12861;SDS011;6499;66.348;14.134;2023-07-20T08:53:12;2.20;;;1.30;;
12861;SDS011;6499;66.348;14.134;2023-07-20T08:55:39;1.90;;;1.30;;
12861;SDS011;6499;66.348;14.134;2023-07-20T08:58:08;3.30;;;1.20;;
12861;SDS011;6499;66.348;14.134;2023-07-20T09:00:36;2.60;;;1.17;;
12861;SDS011;6499;66.348;14.134;2023-07-20T09:03:02;2.60;;;1.30;;
12861;SDS011;6499;66.348;14.134;2023-07-20T09:05:29;2.57;;;1.20;;
12861;SDS011;6499;66.348;14.134;2023-07-20T09:07:56;3.03;;;1.30;;
12861;SDS011;6499;66.348;14.134;2023-07-20T09:10:23;2.57;;;1.27;;
12861;SDS011;6499;66.348;14.134;2023-07-20T09:12:50;1.87;;;1.10;;
12861;SDS011;6499;66.348;14.134;2023-07-20T09:15:18;2.97;;;1.27;;
12861;SDS011;6499;66.348;14.134;2023-07-20T09:17:46;2.90;;;1.43;;
12861;SDS011;6499;66.348;14.134;2023-07-20T09:20:14;2.43;;;1.50;;
12861;SDS011;6499;66.348;14.134;2023-07-20T09:22:41;2.07;;;1.10;;
12861;SDS011;6499;66.348;14.134;2023-07-20T09:25:10;2.47;;;1.20;;
12861;SDS011;6499;66.348;14.134;2023-07-20T09:27:37;1.83;;;1.10;;
12861;SDS011;6499;66.348;14.134;2023-07-20T09:30:04;2.57;;;1.80;;
12861;SDS011;6499;66.348;14.134;2023-07-20T09:32:35;2.17;;;1.33;;
12861;SDS011;6499;66.348;14.134;2023-07-20T09:35:04;2.87;;;1.23;;
12861;SDS011;6499;66.348;14.134;2023-07-20T09:37:32;2.20;;;1.13;;
12861;SDS011;6499;66.348;14.134;2023-07-20T09:39:59;1.57;;;1.00;;
12861;SDS011;6499;66.348;14.134;2023-07-20T09:42:25;2.57;;;1.10;;
12861;SDS011;6499;66.348;14.134;2023-07-20T09:44:52;2.10;;;0.90;;
12861;SDS011;6499;66.348;14.134;2023-07-20T09:47:22;1.70;;;1.00;;
12861;SDS011;6499;66.348;14.134;2023-07-20T09:49:50;2.00;;;1.10;;
12861;SDS011;6499;66.348;14.134;2023-07-20T09:52:21;1.07;;;0.90;;
12861;SDS011;6499;66.348;14.134;2023-07-20T09:54:47;1.27;;;1.00;;
12861;SDS011;6499;66.348;14.134;2023-07-20T09:57:14;2.00;;;1.20;;
12861;SDS011;6499;66.348;14.134;2023-07-20T09:59:41;2.00;;;1.00;;
12861;SDS011;6499;66.348;14.134;2023-07-20T10:02:10;2.37;;;1.30;;
12861;SDS011;6499;66.348;14.134;2023-07-20T10:04:39;1.47;;;1.00;;
12861;SDS011;6499;66.348;14.134;2023-07-20T10:07:08;2.90;;;1.17;;
12861;SDS011;6499;66.348;14.134;2023-07-20T10:09:36;2.43;;;0.90;;
12861;SDS011;6499;66.348;14.134;2023-07-20T10:12:05;1.97;;;1.10;;
12861;SDS011;6499;66.348;14.134;2023-07-20T10:14:32;3.33;;;1.23;;
12861;SDS011;6499;66.348;14.134;2023-07-20T10:17:01;3.40;;;1.30;;
12861;SDS011;6499;66.348;14.134;2023-07-20T10:19:32;2.57;;;1.20;;
12861;SDS011;6499;66.348;14.134;2023-07-20T10:22:00;1.70;;;1.10;;
12861;SDS011;6499;66.348;14.134;2023-07-20T10:24:31;3.47;;;1.00;;
12861;SDS011;6499;66.348;14.134;2023-07-20T10:26:58;2.03;;;0.97;;
12861;SDS011;6499;66.348;14.134;2023-07-20T10:29:24;3.30;;;1.50;;
12861;SDS011;6499;66.348;14.134;2023-07-20T10:31:52;3.73;;;1.40;;
12861;SDS011;6499;66.348;14.134;2023-07-20T10:34:19;2.20;;;1.30;;
12861;SDS011;6499;66.348;14.134;2023-07-20T10:36:46;3.13;;;1.30;;
12861;SDS011;6499;66.348;14.134;2023-07-20T10:39:23;3.87;;;1.40;;
12861;SDS011;6499;66.348;14.134;2023-07-20T10:41:53;3.40;;;1.40;;
12861;SDS011;6499;66.348;14.134;2023-07-20T10:47:40;2.97;;;1.80;;
12861;SDS011;6499;66.348;14.134;2023-07-20T10:50:14;4.97;;;1.60;;
12861;SDS011;6499;66.348;14.134;2023-07-20T10:52:40;3.80;;;1.63;;
12861;SDS011;6499;66.348;14.134;2023-07-20T10:55:10;2.40;;;1.40;;
12861;SDS011;6499;66.348;14.134;2023-07-20T10:57:39;2.03;;;1.27;;
12861;SDS011;6499;66.348;14.134;2023-07-20T11:00:10;3.43;;;1.47;;
12861;SDS011;6499;66.348;14.134;2023-07-20T11:02:46;2.33;;;1.43;;
12861;SDS011;6499;66.348;14.134;2023-07-20T11:05:33;2.03;;;1.20;;
12861;SDS011;6499;66.348;14.134;2023-07-20T11:08:00;2.63;;;1.30;;
12861;SDS011;6499;66.348;14.134;2023-07-20T11:10:28;1.93;;;1.30;;
12861;SDS011;6499;66.348;14.134;2023-07-20T11:15:46;2.23;;;1.17;;
12861;SDS011;6499;66.348;14.134;2023-07-20T11:18:13;2.10;;;1.23;;
12861;SDS011;6499;66.348;14.134;2023-07-20T11:20:40;3.57;;;1.50;;
12861;SDS011;6499;66.348;14.134;2023-07-20T11:23:06;3.00;;;1.40;;
12861;SDS011;6499;66.348;14.134;2023-07-20T11:25:37;3.03;;;1.30;;
12861;SDS011;6499;66.348;14.134;2023-07-20T11:28:06;2.83;;;1.30;;
12861;SDS011;6499;66.348;14.134;2023-07-20T11:30:33;3.37;;;1.20;;
12861;SDS011;6499;66.348;14.134;2023-07-20T11:33:01;1.70;;;1.10;;
12861;SDS011;6499;66.348;14.134;2023-07-20T11:35:28;2.43;;;1.43;;
12861;SDS011;6499;66.348;14.134;2023-07-20T11:37:54;4.43;;;1.37;;
12861;SDS011;6499;66.348;14.134;2023-07-20T11:40:21;1.60;;;1.07;;
12861;SDS011;6499;66.348;14.134;2023-07-20T11:42:49;4.17;;;1.60;;
12861;SDS011;6499;66.348;14.134;2023-07-20T11:45:15;2.10;;;1.77;;
12861;SDS011;6499;66.348;14.134;2023-07-20T11:47:43;2.90;;;1.30;;
12861;SDS011;6499;66.348;14.134;2023-07-20T11:50:11;2.63;;;1.33;;
12861;SDS011;6499;66.348;14.134;2023-07-20T11:52:39;5.20;;;1.27;;
12861;SDS011;6499;66.348;14.134;2023-07-20T11:55:06;2.17;;;1.20;;
12861;SDS011;6499;66.348;14.134;2023-07-20T11:57:33;1.27;;;1.10;;
12861;SDS011;6499;66.348;14.134;2023-07-20T12:00:00;1.97;;;1.20;;
12861;SDS011;6499;66.348;14.134;2023-07-20T12:02:30;1.83;;;1.00;;
12861;SDS011;6499;66.348;14.134;2023-07-20T12:04:57;3.60;;;1.57;;
12861;SDS011;6499;66.348;14.134;2023-07-20T12:07:25;2.20;;;1.30;;
12861;SDS011;6499;66.348;14.134;2023-07-20T12:10:06;1.97;;;1.10;;
12861;SDS011;6499;66.348;14.134;2023-07-20T12:12:33;2.50;;;1.37;;
12861;SDS011;6499;66.348;14.134;2023-07-20T12:15:12;2.30;;;1.07;;
12861;SDS011;6499;66.348;14.134;2023-07-20T12:17:41;1.80;;;1.03;;
12861;SDS011;6499;66.348;14.134;2023-07-20T12:20:08;2.50;;;1.20;;
12861;SDS011;6499;66.348;14.134;2023-07-20T12:22:39;1.87;;;1.20;;
12861;SDS011;6499;66.348;14.134;2023-07-20T12:25:06;3.63;;;1.30;;
12861;SDS011;6499;66.348;14.134;2023-07-20T12:27:35;4.73;;;1.23;;
12861;SDS011;6499;66.348;14.134;2023-07-20T12:30:01;2.10;;;1.20;;
12861;SDS011;6499;66.348;14.134;2023-07-20T12:32:29;2.07;;;1.20;;
12861;SDS011;6499;66.348;14.134;2023-07-20T12:34:56;1.57;;;1.13;;
12861;SDS011;6499;66.348;14.134;2023-07-20T12:37:22;2.30;;;1.20;;
12861;SDS011;6499;66.348;14.134;2023-07-20T12:39:50;6.77;;;1.30;;
12861;SDS011;6499;66.348;14.134;2023-07-20T12:42:18;2.00;;;1.10;;
12861;SDS011;6499;66.348;14.134;2023-07-20T12:44:45;1.67;;;0.90;;
12861;SDS011;6499;66.348;14.134;2023-07-20T12:47:12;1.00;;;0.83;;
12861;SDS011;6499;66.348;14.134;2023-07-20T12:49:39;2.17;;;1.23;;
12861;SDS011;6499;66.348;14.134;2023-07-20T12:52:06;2.40;;;1.20;;
12861;SDS011;6499;66.348;14.134;2023-07-20T12:54:33;0.97;;;0.90;;
12861;SDS011;6499;66.348;14.134;2023-07-20T12:57:01;1.90;;;1.30;;
12861;SDS011;6499;66.348;14.134;2023-07-20T12:59:28;1.33;;;0.80;;
12861;SDS011;6499;66.348;14.134;2023-07-20T13:01:54;1.60;;;1.30;;
12861;SDS011;6499;66.348;14.134;2023-07-20T13:04:21;1.77;;;1.10;;
12861;SDS011;6499;66.348;14.134;2023-07-20T13:06:48;2.07;;;1.10;;
12861;SDS011;6499;66.348;14.134;2023-07-20T13:09:14;1.10;;;0.97;;
12861;SDS011;6499;66.348;14.134;2023-07-20T13:11:41;1.10;;;1.00;;
12861;SDS011;6499;66.348;14.134;2023-07-20T13:14:09;2.67;;;0.90;;
12861;SDS011;6499;66.348;14.134;2023-07-20T13:16:36;2.73;;;1.30;;
12861;SDS011;6499;66.348;14.134;2023-07-20T13:19:03;2.50;;;1.23;;
12861;SDS011;6499;66.348;14.134;2023-07-20T13:21:30;1.10;;;1.00;;
12861;SDS011;6499;66.348;14.134;2023-07-20T13:23:56;1.37;;;1.10;;
12861;SDS011;6499;66.348;14.134;2023-07-20T13:26:23;1.73;;;1.10;;
12861;SDS011;6499;66.348;14.134;2023-07-20T13:28:49;1.40;;;0.90;;
12861;SDS011;6499;66.348;14.134;2023-07-20T13:31:18;1.00;;;0.90;;
12861;SDS011;6499;66.348;14.134;2023-07-20T13:33:46;1.13;;;0.80;;
12861;SDS011;6499;66.348;14.134;2023-07-20T13:36:12;1.17;;;0.90;;
12861;SDS011;6499;66.348;14.134;2023-07-20T13:38:39;1.00;;;0.70;;
12861;SDS011;6499;66.348;14.134;2023-07-20T13:41:05;1.27;;;0.80;;
12861;SDS011;6499;66.348;14.134;2023-07-20T13:43:32;2.00;;;1.07;;
12861;SDS011;6499;66.348;14.134;2023-07-20T13:45:58;2.17;;;1.20;;
12861;SDS011;6499;66.348;14.134;2023-07-20T13:48:26;2.37;;;1.10;;
12861;SDS011;6499;66.348;14.134;2023-07-20T13:50:53;2.23;;;1.00;;
12861;SDS011;6499;66.348;14.134;2023-07-20T13:53:20;2.00;;;1.00;;
12861;SDS011;6499;66.348;14.134;2023-07-20T13:55:47;1.50;;;1.10;;
12861;SDS011;6499;66.348;14.134;2023-07-20T13:58:13;1.30;;;0.93;;
12861;SDS011;6499;66.348;14.134;2023-07-20T14:00:40;1.27;;;0.90;;
12861;SDS011;6499;66.348;14.134;2023-07-20T14:03:07;1.50;;;1.00;;
12861;SDS011;6499;66.348;14.134;2023-07-20T14:05:36;2.77;;;1.00;;
12861;SDS011;6499;66.348;14.134;2023-07-20T14:08:02;1.83;;;1.10;;
12861;SDS011;6499;66.348;14.134;2023-07-20T14:10:29;2.27;;;0.83;;
12861;SDS011;6499;66.348;14.134;2023-07-20T14:12:55;1.10;;;1.00;;
12861;SDS011;6499;66.348;14.134;2023-07-20T14:15:22;2.33;;;1.10;;
12861;SDS011;6499;66.348;14.134;2023-07-20T14:17:48;1.50;;;0.90;;
12861;SDS011;6499;66.348;14.134;2023-07-20T14:20:15;1.70;;;1.00;;
12861;SDS011;6499;66.348;14.134;2023-07-20T14:22:43;1.33;;;1.00;;
12861;SDS011;6499;66.348;14.134;2023-07-20T14:25:10;3.07;;;1.03;;
12861;SDS011;6499;66.348;14.134;2023-07-20T14:27:36;0.80;;;0.80;;
12861;SDS011;6499;66.348;14.134;2023-07-20T14:30:03;1.10;;;1.00;;
12861;SDS011;6499;66.348;14.134;2023-07-20T14:32:30;1.33;;;1.07;;
12861;SDS011;6499;66.348;14.134;2023-07-20T14:34:58;1.00;;;0.90;;
12861;SDS011;6499;66.348;14.134;2023-07-20T14:37:24;1.53;;;0.90;;
12861;SDS011;6499;66.348;14.134;2023-07-20T14:39:52;1.00;;;0.83;;
12861;SDS011;6499;66.348;14.134;2023-07-20T14:42:19;1.40;;;1.00;;
12861;SDS011;6499;66.348;14.134;2023-07-20T14:44:45;1.47;;;1.10;;
12861;SDS011;6499;66.348;14.134;2023-07-20T14:47:12;1.10;;;1.00;;
12861;SDS011;6499;66.348;14.134;2023-07-20T14:49:38;2.33;;;1.13;;
12861;SDS011;6499;66.348;14.134;2023-07-20T14:52:05;1.33;;;1.10;;
12861;SDS011;6499;66.348;14.134;2023-07-20T14:54:32;1.23;;;1.03;;